Crotts, Mississippi
Current Conditions -  °F | °C
As of 11:55 PM on Saturday 22 Nov 2014 (Local Time) from KPIB Reporting Station
Overcast Overcast  
Wind Chill: 61°   Ceiling: 800
Heat Index: 61°   Visibility: 10mi
Dew Point: 55°   Wind: 10mph
Humidity: 82%   Direction: 110°ESE
Pressure: 29.94"   Gusts: 16mph
Location:  31.5533°N, 89.2322°W
Report Text: KPIB 230555Z AUTO 11009G14KT 10SM OVC008 16/13 A2994 RMK AO1 10170 20160 57034
Loading
Personal Weather Stations






























Interactive Weather Map New forecast layout! Learn more

10-Day Weather Forecast

Advertisements
Track Severe Weather on mobile